sensor_id;sensor_type;location;lat;lon;timestamp;P1;durP1;ratioP1;P2;durP2;ratioP2
7477;SDS011;3780;42.424;25.636;2023-07-22T03:54:10;11.63;;;5.53;;
7477;SDS011;3780;42.424;25.636;2023-07-22T03:56:37;12.85;;;4.97;;
7477;SDS011;3780;42.424;25.636;2023-07-22T03:59:02;9.50;;;5.65;;
7477;SDS011;3780;42.424;25.636;2023-07-22T04:01:27;13.85;;;5.35;;
7477;SDS011;3780;42.424;25.636;2023-07-22T04:03:52;17.27;;;5.15;;
7477;SDS011;3780;42.424;25.636;2023-07-22T04:06:18;10.40;;;5.10;;
7477;SDS011;3780;42.424;25.636;2023-07-22T04:08:43;14.77;;;5.10;;
7477;SDS011;3780;42.424;25.636;2023-07-22T04:11:10;9.32;;;4.80;;
7477;SDS011;3780;42.424;25.636;2023-07-22T04:13:35;12.73;;;5.28;;
7477;SDS011;3780;42.424;25.636;2023-07-22T04:16:01;8.38;;;4.82;;
7477;SDS011;3780;42.424;25.636;2023-07-22T04:18:26;9.00;;;4.80;;
7477;SDS011;3780;42.424;25.636;2023-07-22T04:20:55;10.07;;;5.10;;
7477;SDS011;3780;42.424;25.636;2023-07-22T04:23:20;7.43;;;4.43;;
7477;SDS011;3780;42.424;25.636;2023-07-22T04:25:45;9.32;;;4.82;;
7477;SDS011;3780;42.424;25.636;2023-07-22T04:28:11;11.35;;;4.90;;
7477;SDS011;3780;42.424;25.636;2023-07-22T04:30:36;10.85;;;5.18;;
7477;SDS011;3780;42.424;25.636;2023-07-22T04:33:02;17.33;;;4.97;;
7477;SDS011;3780;42.424;25.636;2023-07-22T04:35:30;18.48;;;12.00;;
7477;SDS011;3780;42.424;25.636;2023-07-22T04:37:56;16.33;;;8.05;;
7477;SDS011;3780;42.424;25.636;2023-07-22T04:40:21;18.63;;;6.45;;
7477;SDS011;3780;42.424;25.636;2023-07-22T04:42:46;15.55;;;8.27;;
7477;SDS011;3780;42.424;25.636;2023-07-22T04:45:11;13.52;;;5.78;;
7477;SDS011;3780;42.424;25.636;2023-07-22T04:47:37;14.98;;;8.02;;
7477;SDS011;3780;42.424;25.636;2023-07-22T04:50:04;14.38;;;7.72;;
7477;SDS011;3780;42.424;25.636;2023-07-22T04:52:30;14.68;;;8.32;;
7477;SDS011;3780;42.424;25.636;2023-07-22T04:54:56;12.68;;;5.90;;
7477;SDS011;3780;42.424;25.636;2023-07-22T04:57:21;8.93;;;5.22;;
7477;SDS011;3780;42.424;25.636;2023-07-22T04:59:46;10.82;;;5.65;;
7477;SDS011;3780;42.424;25.636;2023-07-22T05:02:12;13.60;;;6.93;;
7477;SDS011;3780;42.424;25.636;2023-07-22T05:04:37;11.55;;;5.95;;
7477;SDS011;3780;42.424;25.636;2023-07-22T05:07:03;10.45;;;5.15;;
7477;SDS011;3780;42.424;25.636;2023-07-22T05:09:28;19.95;;;8.98;;
7477;SDS011;3780;42.424;25.636;2023-07-22T05:11:53;17.98;;;5.93;;
7477;SDS011;3780;42.424;25.636;2023-07-22T05:14:19;12.35;;;9.68;;
7477;SDS011;3780;42.424;25.636;2023-07-22T05:16:44;12.05;;;6.15;;
7477;SDS011;3780;42.424;25.636;2023-07-22T05:19:09;20.23;;;14.65;;
7477;SDS011;3780;42.424;25.636;2023-07-22T05:21:35;13.27;;;6.78;;
7477;SDS011;3780;42.424;25.636;2023-07-22T05:24:00;14.30;;;9.25;;
7477;SDS011;3780;42.424;25.636;2023-07-22T05:26:25;16.23;;;9.00;;
7477;SDS011;3780;42.424;25.636;2023-07-22T05:28:51;13.35;;;6.47;;
7477;SDS011;3780;42.424;25.636;2023-07-22T05:31:16;14.65;;;7.53;;
7477;SDS011;3780;42.424;25.636;2023-07-22T05:33:41;7.90;;;5.72;;
7477;SDS011;3780;42.424;25.636;2023-07-22T05:36:06;8.07;;;5.80;;
7477;SDS011;3780;42.424;25.636;2023-07-22T05:38:32;15.93;;;6.85;;
7477;SDS011;3780;42.424;25.636;2023-07-22T05:40:57;10.77;;;6.28;;
7477;SDS011;3780;42.424;25.636;2023-07-22T05:43:22;11.15;;;6.05;;
7477;SDS011;3780;42.424;25.636;2023-07-22T05:45:48;15.55;;;5.65;;
7477;SDS011;3780;42.424;25.636;2023-07-22T05:48:13;17.02;;;7.10;;
7477;SDS011;3780;42.424;25.636;2023-07-22T05:50:39;11.52;;;6.68;;
7477;SDS011;3780;42.424;25.636;2023-07-22T05:53:04;11.43;;;6.13;;
7477;SDS011;3780;42.424;25.636;2023-07-22T05:55:29;11.35;;;5.60;;
7477;SDS011;3780;42.424;25.636;2023-07-22T05:57:54;19.35;;;7.85;;
7477;SDS011;3780;42.424;25.636;2023-07-22T06:00:20;10.07;;;5.65;;
7477;SDS011;3780;42.424;25.636;2023-07-22T06:02:45;19.60;;;6.85;;
7477;SDS011;3780;42.424;25.636;2023-07-22T06:05:10;15.18;;;5.55;;
7477;SDS011;3780;42.424;25.636;2023-07-22T06:07:36;12.52;;;6.25;;
7477;SDS011;3780;42.424;25.636;2023-07-22T06:10:01;18.70;;;7.10;;
7477;SDS011;3780;42.424;25.636;2023-07-22T06:12:27;8.50;;;5.50;;
7477;SDS011;3780;42.424;25.636;2023-07-22T06:14:52;12.35;;;4.90;;
7477;SDS011;3780;42.424;25.636;2023-07-22T06:17:17;7.20;;;5.47;;
7477;SDS011;3780;42.424;25.636;2023-07-22T06:19:45;11.40;;;5.78;;
7477;SDS011;3780;42.424;25.636;2023-07-22T06:22:10;9.32;;;5.28;;
7477;SDS011;3780;42.424;25.636;2023-07-22T06:24:35;8.77;;;5.03;;
7477;SDS011;3780;42.424;25.636;2023-07-22T06:27:01;11.57;;;6.85;;
7477;SDS011;3780;42.424;25.636;2023-07-22T06:29:26;16.17;;;11.40;;
7477;SDS011;3780;42.424;25.636;2023-07-22T06:31:51;8.85;;;5.75;;
7477;SDS011;3780;42.424;25.636;2023-07-22T06:34:17;10.10;;;5.38;;
7477;SDS011;3780;42.424;25.636;2023-07-22T06:36:42;12.85;;;5.68;;
7477;SDS011;3780;42.424;25.636;2023-07-22T06:39:07;10.05;;;5.88;;
7477;SDS011;3780;42.424;25.636;2023-07-22T06:41:33;9.82;;;5.85;;
7477;SDS011;3780;42.424;25.636;2023-07-22T06:43:58;15.60;;;5.85;;
7477;SDS011;3780;42.424;25.636;2023-07-22T06:46:23;14.40;;;5.88;;
7477;SDS011;3780;42.424;25.636;2023-07-22T06:48:49;15.80;;;6.60;;
7477;SDS011;3780;42.424;25.636;2023-07-22T06:51:14;10.15;;;5.30;;
7477;SDS011;3780;42.424;25.636;2023-07-22T06:53:39;11.45;;;6.22;;
7477;SDS011;3780;42.424;25.636;2023-07-22T06:56:05;9.02;;;5.80;;
7477;SDS011;3780;42.424;25.636;2023-07-22T06:58:31;11.75;;;6.43;;
7477;SDS011;3780;42.424;25.636;2023-07-22T07:00:56;10.38;;;6.32;;
7477;SDS011;3780;42.424;25.636;2023-07-22T07:03:22;10.60;;;5.85;;
7477;SDS011;3780;42.424;25.636;2023-07-22T07:05:56;14.90;;;7.40;;
7477;SDS011;3780;42.424;25.636;2023-07-22T07:08:22;13.70;;;7.30;;
7477;SDS011;3780;42.424;25.636;2023-07-22T07:10:48;10.85;;;6.57;;
7477;SDS011;3780;42.424;25.636;2023-07-22T07:13:13;11.80;;;6.60;;
7477;SDS011;3780;42.424;25.636;2023-07-22T07:15:38;12.10;;;6.30;;
7477;SDS011;3780;42.424;25.636;2023-07-22T07:18:04;9.38;;;6.47;;
7477;SDS011;3780;42.424;25.636;2023-07-22T07:20:30;10.60;;;6.70;;
7477;SDS011;3780;42.424;25.636;2023-07-22T07:22:55;13.18;;;6.38;;
7477;SDS011;3780;42.424;25.636;2023-07-22T07:25:22;8.95;;;6.15;;
7477;SDS011;3780;42.424;25.636;2023-07-22T07:27:48;7.10;;;5.20;;
7477;SDS011;3780;42.424;25.636;2023-07-22T07:30:13;10.38;;;6.05;;
7477;SDS011;3780;42.424;25.636;2023-07-22T07:32:39;9.27;;;5.88;;
7477;SDS011;3780;42.424;25.636;2023-07-22T07:35:04;12.65;;;5.80;;
7477;SDS011;3780;42.424;25.636;2023-07-22T07:37:31;15.18;;;6.78;;
7477;SDS011;3780;42.424;25.636;2023-07-22T07:39:56;13.15;;;8.25;;
7477;SDS011;3780;42.424;25.636;2023-07-22T07:42:25;12.20;;;7.85;;
7477;SDS011;3780;42.424;25.636;2023-07-22T07:44:50;9.57;;;6.50;;
7477;SDS011;3780;42.424;25.636;2023-07-22T07:47:15;14.73;;;12.18;;
7477;SDS011;3780;42.424;25.636;2023-07-22T07:49:41;8.25;;;5.93;;
7477;SDS011;3780;42.424;25.636;2023-07-22T07:52:06;9.13;;;6.13;;
7477;SDS011;3780;42.424;25.636;2023-07-22T07:54:31;10.45;;;7.10;;
7477;SDS011;3780;42.424;25.636;2023-07-22T07:56:56;15.48;;;7.63;;
7477;SDS011;3780;42.424;25.636;2023-07-22T07:59:22;13.25;;;6.72;;
7477;SDS011;3780;42.424;25.636;2023-07-22T08:01:47;11.73;;;5.85;;
7477;SDS011;3780;42.424;25.636;2023-07-22T08:04:12;8.65;;;5.65;;
7477;SDS011;3780;42.424;25.636;2023-07-22T08:06:38;9.20;;;5.53;;
7477;SDS011;3780;42.424;25.636;2023-07-22T08:09:03;13.82;;;6.03;;
7477;SDS011;3780;42.424;25.636;2023-07-22T08:11:30;9.05;;;5.65;;
7477;SDS011;3780;42.424;25.636;2023-07-22T08:13:55;13.35;;;5.75;;
7477;SDS011;3780;42.424;25.636;2023-07-22T08:16:21;13.30;;;6.30;;
7477;SDS011;3780;42.424;25.636;2023-07-22T08:18:47;12.40;;;6.20;;
7477;SDS011;3780;42.424;25.636;2023-07-22T08:21:13;9.02;;;5.75;;
7477;SDS011;3780;42.424;25.636;2023-07-22T08:23:38;9.98;;;6.68;;
7477;SDS011;3780;42.424;25.636;2023-07-22T08:26:04;14.35;;;6.20;;
7477;SDS011;3780;42.424;25.636;2023-07-22T08:28:32;7.93;;;5.78;;
7477;SDS011;3780;42.424;25.636;2023-07-22T08:30:58;13.63;;;5.85;;
7477;SDS011;3780;42.424;25.636;2023-07-22T08:33:25;9.77;;;5.32;;
7477;SDS011;3780;42.424;25.636;2023-07-22T08:35:51;13.32;;;7.05;;
7477;SDS011;3780;42.424;25.636;2023-07-22T08:38:17;11.60;;;6.43;;
7477;SDS011;3780;42.424;25.636;2023-07-22T08:40:42;9.35;;;5.72;;
7477;SDS011;3780;42.424;25.636;2023-07-22T08:43:08;12.50;;;6.85;;
7477;SDS011;3780;42.424;25.636;2023-07-22T08:45:35;14.75;;;7.45;;
7477;SDS011;3780;42.424;25.636;2023-07-22T08:48:08;13.18;;;6.78;;
7477;SDS011;3780;42.424;25.636;2023-07-22T08:50:37;8.82;;;5.45;;
7477;SDS011;3780;42.424;25.636;2023-07-22T08:53:06;11.18;;;5.90;;
7477;SDS011;3780;42.424;25.636;2023-07-22T08:55:32;12.80;;;5.80;;
7477;SDS011;3780;42.424;25.636;2023-07-22T08:57:58;10.10;;;6.22;;
7477;SDS011;3780;42.424;25.636;2023-07-22T09:00:23;10.07;;;6.25;;
7477;SDS011;3780;42.424;25.636;2023-07-22T09:02:49;11.18;;;6.15;;
7477;SDS011;3780;42.424;25.636;2023-07-22T09:05:15;14.68;;;6.55;;
7477;SDS011;3780;42.424;25.636;2023-07-22T09:07:40;15.00;;;6.03;;
7477;SDS011;3780;42.424;25.636;2023-07-22T09:10:06;9.63;;;5.05;;
7477;SDS011;3780;42.424;25.636;2023-07-22T09:12:33;12.10;;;5.75;;
7477;SDS011;3780;42.424;25.636;2023-07-22T09:15:05;8.32;;;5.20;;
7477;SDS011;3780;42.424;25.636;2023-07-22T09:17:32;11.73;;;5.85;;
7477;SDS011;3780;42.424;25.636;2023-07-22T09:19:57;12.27;;;5.53;;
7477;SDS011;3780;42.424;25.636;2023-07-22T09:22:25;13.50;;;10.00;;
7477;SDS011;3780;42.424;25.636;2023-07-22T09:24:52;13.07;;;5.60;;
7477;SDS011;3780;42.424;25.636;2023-07-22T09:27:29;11.90;;;6.35;;
7477;SDS011;3780;42.424;25.636;2023-07-22T09:29:57;11.68;;;5.50;;
7477;SDS011;3780;42.424;25.636;2023-07-22T09:32:34;10.57;;;5.65;;
7477;SDS011;3780;42.424;25.636;2023-07-22T09:34:59;11.68;;;5.70;;
7477;SDS011;3780;42.424;25.636;2023-07-22T09:37:35;9.83;;;5.30;;
7477;SDS011;3780;42.424;25.636;2023-07-22T09:40:01;7.80;;;5.25;;
7477;SDS011;3780;42.424;25.636;2023-07-22T09:42:26;12.52;;;5.35;;
7477;SDS011;3780;42.424;25.636;2023-07-22T09:44:52;8.68;;;5.47;;
7477;SDS011;3780;42.424;25.636;2023-07-22T09:47:19;14.52;;;7.90;;
7477;SDS011;3780;42.424;25.636;2023-07-22T09:49:44;11.00;;;6.47;;
7477;SDS011;3780;42.424;25.636;2023-07-22T09:52:10;11.85;;;5.55;;
7477;SDS011;3780;42.424;25.636;2023-07-22T09:54:42;8.82;;;5.10;;
7477;SDS011;3780;42.424;25.636;2023-07-22T09:57:12;7.93;;;5.03;;
7477;SDS011;3780;42.424;25.636;2023-07-22T09:59:38;10.65;;;5.55;;
7477;SDS011;3780;42.424;25.636;2023-07-22T10:02:03;7.50;;;5.75;;
7477;SDS011;3780;42.424;25.636;2023-07-22T10:04:28;11.90;;;5.45;;
7477;SDS011;3780;42.424;25.636;2023-07-22T10:06:58;12.43;;;5.97;;
7477;SDS011;3780;42.424;25.636;2023-07-22T10:09:24;12.57;;;5.32;;
7477;SDS011;3780;42.424;25.636;2023-07-22T10:11:52;9.77;;;5.18;;
7477;SDS011;3780;42.424;25.636;2023-07-22T10:14:18;9.48;;;5.18;;
7477;SDS011;3780;42.424;25.636;2023-07-22T10:16:43;9.63;;;5.63;;
7477;SDS011;3780;42.424;25.636;2023-07-22T10:19:09;9.52;;;5.22;;
7477;SDS011;3780;42.424;25.636;2023-07-22T10:21:35;8.60;;;5.35;;
7477;SDS011;3780;42.424;25.636;2023-07-22T10:24:01;8.65;;;5.05;;
7477;SDS011;3780;42.424;25.636;2023-07-22T10:26:28;9.98;;;5.20;;
7477;SDS011;3780;42.424;25.636;2023-07-22T10:28:53;13.10;;;5.78;;
7477;SDS011;3780;42.424;25.636;2023-07-22T10:31:20;14.32;;;5.43;;
7477;SDS011;3780;42.424;25.636;2023-07-22T10:33:47;16.52;;;6.15;;
7477;SDS011;3780;42.424;25.636;2023-07-22T10:36:13;10.80;;;5.07;;
7477;SDS011;3780;42.424;25.636;2023-07-22T10:38:39;10.45;;;5.57;;
7477;SDS011;3780;42.424;25.636;2023-07-22T10:41:14;8.50;;;5.70;;
7477;SDS011;3780;42.424;25.636;2023-07-22T10:43:41;9.13;;;5.43;;
7477;SDS011;3780;42.424;25.636;2023-07-22T10:46:10;10.55;;;6.05;;
7477;SDS011;3780;42.424;25.636;2023-07-22T10:48:36;11.65;;;5.70;;
7477;SDS011;3780;42.424;25.636;2023-07-22T10:51:12;11.30;;;5.93;;
7477;SDS011;3780;42.424;25.636;2023-07-22T10:53:44;15.05;;;7.63;;
7477;SDS011;3780;42.424;25.636;2023-07-22T10:56:20;15.90;;;7.00;;
7477;SDS011;3780;42.424;25.636;2023-07-22T11:01:23;12.50;;;6.10;;
7477;SDS011;3780;42.424;25.636;2023-07-22T11:04:09;13.05;;;5.75;;
7477;SDS011;3780;42.424;25.636;2023-07-22T11:11:53;9.85;;;4.78;;
7477;SDS011;3780;42.424;25.636;2023-07-22T11:14:21;16.15;;;4.82;;
7477;SDS011;3780;42.424;25.636;2023-07-22T11:16:47;9.07;;;5.30;;
7477;SDS011;3780;42.424;25.636;2023-07-22T11:19:17;9.45;;;5.10;;
7477;SDS011;3780;42.424;25.636;2023-07-22T11:21:43;9.50;;;5.15;;
7477;SDS011;3780;42.424;25.636;2023-07-22T11:24:08;8.55;;;5.32;;
7477;SDS011;3780;42.424;25.636;2023-07-22T11:26:34;8.82;;;5.53;;
7477;SDS011;3780;42.424;25.636;2023-07-22T11:29:00;13.18;;;5.65;;
7477;SDS011;3780;42.424;25.636;2023-07-22T11:31:32;7.43;;;5.13;;
7477;SDS011;3780;42.424;25.636;2023-07-22T11:33:57;11.90;;;5.28;;
7477;SDS011;3780;42.424;25.636;2023-07-22T11:36:23;9.02;;;5.32;;
7477;SDS011;3780;42.424;25.636;2023-07-22T11:38:48;11.68;;;5.35;;
7477;SDS011;3780;42.424;25.636;2023-07-22T11:41:14;12.77;;;5.60;;
7477;SDS011;3780;42.424;25.636;2023-07-22T11:43:39;12.27;;;5.40;;
7477;SDS011;3780;42.424;25.636;2023-07-22T11:46:05;18.48;;;6.95;;
7477;SDS011;3780;42.424;25.636;2023-07-22T11:48:31;14.18;;;6.35;;
7477;SDS011;3780;42.424;25.636;2023-07-22T11:50:59;10.90;;;5.78;;
7477;SDS011;3780;42.424;25.636;2023-07-22T11:53:28;11.95;;;5.25;;
7477;SDS011;3780;42.424;25.636;2023-07-22T11:55:56;12.55;;;5.53;;
7477;SDS011;3780;42.424;25.636;2023-07-22T11:58:25;11.55;;;6.28;;
7477;SDS011;3780;42.424;25.636;2023-07-22T12:01:01;12.07;;;5.90;;
7477;SDS011;3780;42.424;25.636;2023-07-22T12:03:30;9.63;;;5.30;;
7477;SDS011;3780;42.424;25.636;2023-07-22T12:05:55;9.93;;;5.13;;
7477;SDS011;3780;42.424;25.636;2023-07-22T12:08:21;11.30;;;5.65;;
7477;SDS011;3780;42.424;25.636;2023-07-22T12:10:55;12.68;;;6.30;;
7477;SDS011;3780;42.424;25.636;2023-07-22T12:13:20;17.10;;;5.85;;
7477;SDS011;3780;42.424;25.636;2023-07-22T12:15:58;8.80;;;5.90;;
7477;SDS011;3780;42.424;25.636;2023-07-22T12:18:24;12.88;;;5.60;;
7477;SDS011;3780;42.424;25.636;2023-07-22T12:20:49;13.93;;;5.80;;
7477;SDS011;3780;42.424;25.636;2023-07-22T12:23:14;12.90;;;6.45;;
7477;SDS011;3780;42.424;25.636;2023-07-22T12:25:40;11.77;;;6.22;;
7477;SDS011;3780;42.424;25.636;2023-07-22T12:28:05;13.93;;;5.57;;
7477;SDS011;3780;42.424;25.636;2023-07-22T12:30:31;9.82;;;5.53;;
7477;SDS011;3780;42.424;25.636;2023-07-22T12:32:56;13.17;;;5.43;;
7477;SDS011;3780;42.424;25.636;2023-07-22T12:35:22;15.75;;;5.70;;
7477;SDS011;3780;42.424;25.636;2023-07-22T12:37:47;13.00;;;5.75;;
7477;SDS011;3780;42.424;25.636;2023-07-22T12:40:13;16.25;;;6.30;;
7477;SDS011;3780;42.424;25.636;2023-07-22T12:42:38;16.17;;;6.32;;
7477;SDS011;3780;42.424;25.636;2023-07-22T12:45:04;13.10;;;5.45;;
7477;SDS011;3780;42.424;25.636;2023-07-22T12:47:30;13.48;;;5.45;;
7477;SDS011;3780;42.424;25.636;2023-07-22T12:49:55;12.48;;;5.90;;
7477;SDS011;3780;42.424;25.636;2023-07-22T12:52:20;14.23;;;5.63;;
7477;SDS011;3780;42.424;25.636;2023-07-22T12:54:45;12.18;;;5.32;;
7477;SDS011;3780;42.424;25.636;2023-07-22T12:57:11;19.50;;;7.50;;
7477;SDS011;3780;42.424;25.636;2023-07-22T12:59:36;16.95;;;7.85;;
7477;SDS011;3780;42.424;25.636;2023-07-22T13:02:01;12.70;;;5.93;;
7477;SDS011;3780;42.424;25.636;2023-07-22T13:04:27;11.00;;;5.78;;
7477;SDS011;3780;42.424;25.636;2023-07-22T13:06:52;13.30;;;6.32;;
7477;SDS011;3780;42.424;25.636;2023-07-22T13:09:18;16.03;;;6.17;;
7477;SDS011;3780;42.424;25.636;2023-07-22T13:11:43;13.30;;;5.50;;
7477;SDS011;3780;42.424;25.636;2023-07-22T13:14:09;12.35;;;5.82;;
7477;SDS011;3780;42.424;25.636;2023-07-22T13:16:34;12.83;;;5.47;;
7477;SDS011;3780;42.424;25.636;2023-07-22T13:18:59;16.30;;;5.73;;
7477;SDS011;3780;42.424;25.636;2023-07-22T13:21:26;13.95;;;5.88;;
7477;SDS011;3780;42.424;25.636;2023-07-22T13:23:51;14.15;;;5.40;;
7477;SDS011;3780;42.424;25.636;2023-07-22T13:26:16;13.15;;;5.50;;
7477;SDS011;3780;42.424;25.636;2023-07-22T13:28:42;14.18;;;6.07;;
7477;SDS011;3780;42.424;25.636;2023-07-22T13:31:07;13.13;;;5.23;;
7477;SDS011;3780;42.424;25.636;2023-07-22T13:33:32;15.43;;;6.57;;
7477;SDS011;3780;42.424;25.636;2023-07-22T13:35:57;15.73;;;6.13;;
7477;SDS011;3780;42.424;25.636;2023-07-22T13:38:23;20.10;;;5.73;;
7477;SDS011;3780;42.424;25.636;2023-07-22T13:40:48;14.70;;;6.20;;
7477;SDS011;3780;42.424;25.636;2023-07-22T13:43:13;11.93;;;5.63;;
7477;SDS011;3780;42.424;25.636;2023-07-22T13:45:38;13.27;;;5.60;;
7477;SDS011;3780;42.424;25.636;2023-07-22T13:48:04;18.23;;;8.18;;
7477;SDS011;3780;42.424;25.636;2023-07-22T13:50:29;18.73;;;6.38;;
7477;SDS011;3780;42.424;25.636;2023-07-22T13:52:55;14.27;;;6.03;;
7477;SDS011;3780;42.424;25.636;2023-07-22T13:55:21;17.20;;;6.10;;
7477;SDS011;3780;42.424;25.636;2023-07-22T13:57:46;20.63;;;6.10;;
7477;SDS011;3780;42.424;25.636;2023-07-22T14:00:11;17.20;;;6.25;;
7477;SDS011;3780;42.424;25.636;2023-07-22T14:02:38;17.13;;;7.28;;
7477;SDS011;3780;42.424;25.636;2023-07-22T14:05:03;31.35;;;13.52;;
7477;SDS011;3780;42.424;25.636;2023-07-22T14:07:29;20.85;;;6.43;;
7477;SDS011;3780;42.424;25.636;2023-07-22T14:09:54;13.63;;;6.40;;
7477;SDS011;3780;42.424;25.636;2023-07-22T14:12:20;22.95;;;7.10;;
7477;SDS011;3780;42.424;25.636;2023-07-22T14:14:45;21.38;;;6.43;;
7477;SDS011;3780;42.424;25.636;2023-07-22T14:17:10;12.90;;;6.00;;
7477;SDS011;3780;42.424;25.636;2023-07-22T14:19:35;19.95;;;6.65;;
7477;SDS011;3780;42.424;25.636;2023-07-22T14:22:01;33.53;;;8.90;;
7477;SDS011;3780;42.424;25.636;2023-07-22T14:24:26;19.65;;;8.10;;
7477;SDS011;3780;42.424;25.636;2023-07-22T14:26:52;26.42;;;9.93;;
7477;SDS011;3780;42.424;25.636;2023-07-22T14:29:17;26.23;;;9.32;;
7477;SDS011;3780;42.424;25.636;2023-07-22T14:31:42;33.80;;;9.85;;
7477;SDS011;3780;42.424;25.636;2023-07-22T14:34:08;24.52;;;8.07;;
7477;SDS011;3780;42.424;25.636;2023-07-22T14:36:34;29.02;;;8.77;;
7477;SDS011;3780;42.424;25.636;2023-07-22T14:38:59;27.27;;;7.65;;
7477;SDS011;3780;42.424;25.636;2023-07-22T14:41:24;17.05;;;7.20;;
7477;SDS011;3780;42.424;25.636;2023-07-22T14:46:14;19.08;;;8.35;;
7477;SDS011;3780;42.424;25.636;2023-07-22T14:48:40;18.60;;;7.72;;
7477;SDS011;3780;42.424;25.636;2023-07-22T14:51:07;21.63;;;7.43;;
7477;SDS011;3780;42.424;25.636;2023-07-22T14:53:32;17.98;;;7.90;;
7477;SDS011;3780;42.424;25.636;2023-07-22T14:55:58;20.42;;;8.23;;
7477;SDS011;3780;42.424;25.636;2023-07-22T14:58:23;24.08;;;16.13;;
7477;SDS011;3780;42.424;25.636;2023-07-22T15:00:48;21.73;;;9.73;;
7477;SDS011;3780;42.424;25.636;2023-07-22T15:03:15;27.38;;;8.50;;
7477;SDS011;3780;42.424;25.636;2023-07-22T15:05:40;22.52;;;10.02;;
7477;SDS011;3780;42.424;25.636;2023-07-22T15:08:05;17.98;;;9.35;;
7477;SDS011;3780;42.424;25.636;2023-07-22T15:10:30;20.40;;;9.10;;
7477;SDS011;3780;42.424;25.636;2023-07-22T15:12:56;16.27;;;8.32;;
7477;SDS011;3780;42.424;25.636;2023-07-22T15:15:21;19.02;;;7.78;;
7477;SDS011;3780;42.424;25.636;2023-07-22T15:17:46;20.25;;;8.52;;
7477;SDS011;3780;42.424;25.636;2023-07-22T15:20:12;21.50;;;8.32;;
7477;SDS011;3780;42.424;25.636;2023-07-22T15:22:37;17.85;;;7.60;;
7477;SDS011;3780;42.424;25.636;2023-07-22T15:25:03;19.10;;;7.30;;
7477;SDS011;3780;42.424;25.636;2023-07-22T15:27:30;16.83;;;7.22;;
7477;SDS011;3780;42.424;25.636;2023-07-22T15:29:55;21.25;;;7.63;;
7477;SDS011;3780;42.424;25.636;2023-07-22T15:32:20;30.40;;;12.70;;
7477;SDS011;3780;42.424;25.636;2023-07-22T15:34:46;20.77;;;8.43;;
7477;SDS011;3780;42.424;25.636;2023-07-22T15:37:11;18.40;;;8.10;;
7477;SDS011;3780;42.424;25.636;2023-07-22T15:39:36;14.38;;;6.95;;
7477;SDS011;3780;42.424;25.636;2023-07-22T15:42:01;16.75;;;7.10;;
7477;SDS011;3780;42.424;25.636;2023-07-22T15:44:27;16.65;;;7.20;;
7477;SDS011;3780;42.424;25.636;2023-07-22T15:46:53;17.88;;;7.47;;
7477;SDS011;3780;42.424;25.636;2023-07-22T15:49:18;20.67;;;8.07;;
7477;SDS011;3780;42.424;25.636;2023-07-22T15:51:43;25.10;;;7.50;;
7477;SDS011;3780;42.424;25.636;2023-07-22T15:54:08;24.63;;;8.20;;
7477;SDS011;3780;42.424;25.636;2023-07-22T15:56:34;20.63;;;8.00;;
7477;SDS011;3780;42.424;25.636;2023-07-22T15:58:59;26.83;;;8.75;;
7477;SDS011;3780;42.424;25.636;2023-07-22T16:01:24;27.85;;;8.27;;
7477;SDS011;3780;42.424;25.636;2023-07-22T16:03:50;23.17;;;7.18;;
7477;SDS011;3780;42.424;25.636;2023-07-22T16:06:15;28.55;;;8.23;;
7477;SDS011;3780;42.424;25.636;2023-07-22T16:08:40;21.20;;;8.55;;
7477;SDS011;3780;42.424;25.636;2023-07-22T16:11:05;26.02;;;10.00;;
7477;SDS011;3780;42.424;25.636;2023-07-22T16:13:31;24.75;;;9.68;;
7477;SDS011;3780;42.424;25.636;2023-07-22T16:15:57;22.25;;;10.65;;
7477;SDS011;3780;42.424;25.636;2023-07-22T16:18:22;22.35;;;9.93;;
7477;SDS011;3780;42.424;25.636;2023-07-22T16:20:47;18.92;;;9.57;;
7477;SDS011;3780;42.424;25.636;2023-07-22T16:23:12;28.60;;;9.30;;
7477;SDS011;3780;42.424;25.636;2023-07-22T16:25:38;29.30;;;9.85;;
7477;SDS011;3780;42.424;25.636;2023-07-22T16:28:03;23.97;;;10.10;;
7477;SDS011;3780;42.424;25.636;2023-07-22T16:30:28;24.27;;;9.30;;
7477;SDS011;3780;42.424;25.636;2023-07-22T16:32:53;23.77;;;9.05;;
7477;SDS011;3780;42.424;25.636;2023-07-22T16:35:19;23.88;;;9.30;;
7477;SDS011;3780;42.424;25.636;2023-07-22T16:37:45;26.77;;;9.35;;
7477;SDS011;3780;42.424;25.636;2023-07-22T16:40:10;24.98;;;9.13;;
7477;SDS011;3780;42.424;25.636;2023-07-22T16:42:37;20.52;;;8.27;;
7477;SDS011;3780;42.424;25.636;2023-07-22T16:45:02;20.15;;;8.10;;
7477;SDS011;3780;42.424;25.636;2023-07-22T16:47:27;25.50;;;8.18;;
7477;SDS011;3780;42.424;25.636;2023-07-22T16:49:53;26.58;;;8.88;;
7477;SDS011;3780;42.424;25.636;2023-07-22T16:52:20;29.88;;;9.57;;
7477;SDS011;3780;42.424;25.636;2023-07-22T16:54:45;18.60;;;8.93;;
7477;SDS011;3780;42.424;25.636;2023-07-22T16:57:10;26.27;;;10.30;;
7477;SDS011;3780;42.424;25.636;2023-07-22T16:59:35;20.27;;;8.95;;
7477;SDS011;3780;42.424;25.636;2023-07-22T17:02:01;21.25;;;8.02;;
7477;SDS011;3780;42.424;25.636;2023-07-22T17:04:26;22.90;;;8.55;;
7477;SDS011;3780;42.424;25.636;2023-07-22T17:06:51;25.23;;;8.13;;
7477;SDS011;3780;42.424;25.636;2023-07-22T17:09:16;18.10;;;7.88;;
7477;SDS011;3780;42.424;25.636;2023-07-22T17:11:42;26.02;;;8.60;;
7477;SDS011;3780;42.424;25.636;2023-07-22T17:14:07;28.15;;;8.38;;
7477;SDS011;3780;42.424;25.636;2023-07-22T17:16:33;19.08;;;7.65;;
7477;SDS011;3780;42.424;25.636;2023-07-22T17:18:58;20.38;;;7.47;;
7477;SDS011;3780;42.424;25.636;2023-07-22T17:21:24;16.77;;;7.32;;
7477;SDS011;3780;42.424;25.636;2023-07-22T17:23:49;23.17;;;7.03;;
7477;SDS011;3780;42.424;25.636;2023-07-22T17:26:14;17.77;;;7.57;;
7477;SDS011;3780;42.424;25.636;2023-07-22T17:28:39;20.85;;;7.30;;
7477;SDS011;3780;42.424;25.636;2023-07-22T17:31:05;32.03;;;9.75;;
7477;SDS011;3780;42.424;25.636;2023-07-22T17:33:30;21.13;;;8.02;;
7477;SDS011;3780;42.424;25.636;2023-07-22T17:35:55;27.33;;;8.52;;
7477;SDS011;3780;42.424;25.636;2023-07-22T17:38:21;23.23;;;8.18;;
7477;SDS011;3780;42.424;25.636;2023-07-22T17:40:46;21.83;;;7.88;;
7477;SDS011;3780;42.424;25.636;2023-07-22T17:43:12;16.80;;;8.05;;
7477;SDS011;3780;42.424;25.636;2023-07-22T17:45:37;23.42;;;8.35;;
7477;SDS011;3780;42.424;25.636;2023-07-22T17:48:03;21.42;;;10.30;;
7477;SDS011;3780;42.424;25.636;2023-07-22T17:50:29;24.08;;;8.88;;
7477;SDS011;3780;42.424;25.636;2023-07-22T17:52:54;24.65;;;9.45;;
7477;SDS011;3780;42.424;25.636;2023-07-22T17:55:19;21.50;;;8.88;;
7477;SDS011;3780;42.424;25.636;2023-07-22T17:57:45;20.63;;;8.57;;
7477;SDS011;3780;42.424;25.636;2023-07-22T18:00:10;22.08;;;8.18;;
7477;SDS011;3780;42.424;25.636;2023-07-22T18:02:35;24.25;;;8.32;;
7477;SDS011;3780;42.424;25.636;2023-07-22T18:05:03;27.08;;;7.47;;
7477;SDS011;3780;42.424;25.636;2023-07-22T18:07:28;25.02;;;8.48;;
7477;SDS011;3780;42.424;25.636;2023-07-22T18:09:54;22.35;;;6.93;;
7477;SDS011;3780;42.424;25.636;2023-07-22T18:12:19;21.75;;;8.10;;
7477;SDS011;3780;42.424;25.636;2023-07-22T18:14:46;18.85;;;7.60;;
7477;SDS011;3780;42.424;25.636;2023-07-22T18:17:11;21.67;;;8.02;;
7477;SDS011;3780;42.424;25.636;2023-07-22T18:19:37;30.55;;;8.35;;
7477;SDS011;3780;42.424;25.636;2023-07-22T18:22:02;19.65;;;6.80;;
7477;SDS011;3780;42.424;25.636;2023-07-22T18:24:28;16.98;;;6.30;;
7477;SDS011;3780;42.424;25.636;2023-07-22T18:26:55;19.02;;;6.70;;
7477;SDS011;3780;42.424;25.636;2023-07-22T18:29:20;15.88;;;6.78;;
7477;SDS011;3780;42.424;25.636;2023-07-22T18:31:46;18.63;;;5.97;;
7477;SDS011;3780;42.424;25.636;2023-07-22T18:34:11;19.35;;;6.93;;
7477;SDS011;3780;42.424;25.636;2023-07-22T18:36:36;18.10;;;6.22;;
7477;SDS011;3780;42.424;25.636;2023-07-22T18:39:02;15.60;;;5.45;;
7477;SDS011;3780;42.424;25.636;2023-07-22T18:41:29;12.07;;;5.18;;
7477;SDS011;3780;42.424;25.636;2023-07-22T18:43:54;14.93;;;5.30;;
7477;SDS011;3780;42.424;25.636;2023-07-22T18:46:19;22.63;;;6.00;;